Time;durP1;ratioP1;P1;durP2;ratioP2;P2;SDS_P1;SDS_P2;PMS_P1;PMS_P2;Temp;Humidity;BMP_temperature;BMP_pressure;BME280_temperature;BME280_humidity;BME280_pressure;Samples;Min_cycle;Max_cycle;Signal;HPM_P1;HPM_P2
2022/12/13 00:01:49;;;;;;;;;;;;;;;10.36;52.74;98001.25;5014916;28;19929;-77
2022/12/13 00:04:14;;;;;;;;;;;;;;;10.36;52.78;98009.91;5014892;28;20300;-77
2022/12/13 00:06:39;;;;;;;;;;;;;;;10.35;52.81;98010.88;4998531;28;19932;-77
2022/12/13 00:09:05;;;;;;;;;;;;;;;10.37;52.56;98008.94;5014969;28;19923;-78
2022/12/13 00:11:30;;;;;;;;;;;;;;;10.36;52.53;98009.91;5019279;28;19994;-78
2022/12/13 00:13:55;;;;;;;;;;;;;;;10.37;52.63;98014.16;5018474;28;20445;-78
2022/12/13 00:16:21;;;;;;;;;;;;;;;10.36;52.58;98014.28;5036465;28;19917;-77
2022/12/13 00:18:47;;;;;;;;;;;;;;;10.35;52.47;98010.88;5018564;28;19924;-78
2022/12/13 00:21:13;;;;;;;;;;;;;;;10.34;52.71;98018.81;5009058;28;20388;-78
2022/12/13 00:23:38;;;;;;;;;;;;;;;10.33;52.70;98010.19;4998732;28;19918;-77
2022/12/13 00:26:09;;;;;;;;;;;;;;;10.33;52.63;98012.78;4998948;28;19927;-78
2022/12/13 00:28:34;;;;;;;;;;;;;;;10.33;52.50;98002.34;4999888;28;20381;-79
2022/12/13 00:30:59;;;;;;;;;;;;;;;10.32;52.50;98006.72;5018640;28;19975;-79
2022/12/13 00:33:25;;;;;;;;;;;;;;;10.33;52.47;98007.56;5018296;28;19979;-79
2022/12/13 00:35:50;;;;;;;;;;;;;;;10.32;52.76;98019.78;5018484;28;19921;-78
2022/12/13 00:38:16;;;;;;;;;;;;;;;10.34;52.57;98029.25;5036154;28;19975;-78
2022/12/13 00:40:41;;;;;;;;;;;;;;;10.32;52.64;98042.41;5036007;28;19924;-82
2022/12/13 00:43:06;;;;;;;;;;;;;;;10.32;52.64;98052.84;5018520;28;19917;-82
2022/12/13 00:45:32;;;;;;;;;;;;;;;10.32;52.46;98058.06;5001507;28;19917;-77
2022/12/13 00:47:57;;;;;;;;;;;;;;;10.32;52.66;98064.13;5018021;28;19971;-83
2022/12/13 00:50:22;;;;;;;;;;;;;;;10.32;52.68;98066.72;5001583;28;19917;-83
2022/12/13 00:52:47;;;;;;;;;;;;;;;10.32;52.57;98061.50;5017891;28;19917;-78
2022/12/13 00:55:13;;;;;;;;;;;;;;;10.32;52.65;98056.28;5018118;28;20458;-80
2022/12/13 00:57:38;;;;;;;;;;;;;;;10.32;52.49;98053.69;5017892;28;19957;-78
2022/12/13 01:00:04;;;;;;;;;;;;;;;10.32;52.42;98051.06;5035915;28;20344;-78
2022/12/13 01:02:29;;;;;;;;;;;;;;;10.32;52.31;98051.06;5017748;28;19917;-80
2022/12/13 01:04:54;;;;;;;;;;;;;;;10.31;52.07;98052.03;5017781;28;20384;-80
2022/12/13 01:07:19;;;;;;;;;;;;;;;10.30;52.12;98059.97;5018067;28;19963;-84
2022/12/13 01:09:45;;;;;;;;;;;;;;;10.28;52.00;98065.31;5018058;28;20019;-82
2022/12/13 01:12:10;;;;;;;;;;;;;;;10.29;51.99;98076.56;5017834;28;19917;-78
2022/12/13 01:14:36;;;;;;;;;;;;;;;10.28;51.96;98072.34;5035383;28;19919;-78
2022/12/13 01:17:02;;;;;;;;;;;;;;;10.25;52.01;98083.84;5035220;28;19974;-84
2022/12/13 01:19:27;;;;;;;;;;;;;;;10.26;52.11;98075.06;5018543;28;19921;-80
2022/12/13 01:21:56;;;;;;;;;;;;;;;10.24;51.77;98074.38;5033882;28;19917;-85
2022/12/13 01:24:23;;;;;;;;;;;;;;;10.24;51.81;98090.00;5017779;28;19960;-87
2022/12/13 01:26:49;;;;;;;;;;;;;;;10.22;51.62;98083.28;5017248;28;19918;-81
2022/12/13 01:29:14;;;;;;;;;;;;;;;10.20;51.82;98075.59;5035158;28;19924;-79
2022/12/13 01:31:40;;;;;;;;;;;;;;;10.20;51.58;98082.56;5017605;28;19924;-79
2022/12/13 01:34:09;;;;;;;;;;;;;;;10.18;51.70;98080.09;5034620;28;20295;-79
2022/12/13 01:36:34;;;;;;;;;;;;;;;10.17;51.78;98080.22;5017345;28;19964;-78
2022/12/13 01:39:00;;;;;;;;;;;;;;;10.16;51.81;98073.38;5016367;28;19968;-79
2022/12/13 01:41:25;;;;;;;;;;;;;;;10.15;51.57;98075.13;5034795;28;20012;-79
2022/12/13 01:43:52;;;;;;;;;;;;;;;10.14;51.59;98081.34;5016947;28;19917;-79
2022/12/13 01:46:17;;;;;;;;;;;;;;;10.13;51.71;98085.69;5034864;28;19925;-80
2022/12/13 01:49:03;;;;;;;;;;;;;;;10.11;51.45;98085.00;5017385;28;19987;-81
2022/12/13 01:51:32;;;;;;;;;;;;;;;10.11;51.41;98085.00;5017200;28;19917;-81
2022/12/13 01:53:58;;;;;;;;;;;;;;;10.10;51.11;98093.81;5016821;28;20315;-82
2022/12/13 01:56:25;;;;;;;;;;;;;;;10.11;51.00;98087.63;5017113;28;19921;-82
2022/12/13 01:58:50;;;;;;;;;;;;;;;10.09;50.92;98102.59;5017191;28;19917;-81
2022/12/13 02:01:16;;;;;;;;;;;;;;;10.08;50.69;98100.91;5017200;28;20419;-80
2022/12/13 02:03:41;;;;;;;;;;;;;;;10.07;50.50;98095.84;5016453;28;19974;-81
2022/12/13 02:06:08;;;;;;;;;;;;;;;10.04;50.33;98096.94;5016859;28;19917;-81
2022/12/13 02:08:33;;;;;;;;;;;;;;;10.04;50.37;98096.94;5016638;28;20300;-81
2022/12/13 02:10:59;;;;;;;;;;;;;;;10.03;50.52;98102.28;5016723;28;19917;-80
2022/12/13 02:13:24;;;;;;;;;;;;;;;10.01;50.57;98099.81;5034175;28;19929;-81
2022/12/13 02:15:56;;;;;;;;;;;;;;;10.02;50.36;98100.63;5016329;28;20008;-79
2022/12/13 02:18:30;;;;;;;;;;;;;;;10.00;50.32;98105.16;5033990;28;19917;-80
2022/12/13 02:20:59;;;;;;;;;;;;;;;9.99;50.44;98108.69;5033976;28;19979;-81
2022/12/13 02:23:36;;;;;;;;;;;;;;;9.97;50.28;98108.81;5035310;28;19958;-80
2022/12/13 02:26:20;;;;;;;;;;;;;;;9.95;50.38;98113.34;5042659;28;19917;-79
2022/12/13 02:28:45;;;;;;;;;;;;;;;9.94;50.37;98116.91;5046510;28;19943;-79
2022/12/13 02:31:15;;;;;;;;;;;;;;;9.93;50.35;98117.84;5038860;28;20307;-80
2022/12/13 02:33:40;;;;;;;;;;;;;;;9.90;50.46;98124.16;5034294;28;19921;-80
2022/12/13 02:36:07;;;;;;;;;;;;;;;9.88;50.31;98130.44;5034131;28;19943;-81
2022/12/13 02:38:48;;;;;;;;;;;;;;;9.85;50.18;98128.94;5016502;28;19940;-81
2022/12/13 02:41:25;;;;;;;;;;;;;;;9.82;50.13;98125.75;5034056;28;19964;-81
2022/12/13 02:44:05;;;;;;;;;;;;;;;9.78;50.39;98130.38;5031712;28;20411;-82
2022/12/13 02:46:31;;;;;;;;;;;;;;;9.75;50.30;98139.28;4996433;28;19984;-82
2022/12/13 02:48:57;;;;;;;;;;;;;;;9.72;50.21;98144.75;4996592;28;20004;-81
2022/12/13 02:51:22;;;;;;;;;;;;;;;9.68;50.68;98143.34;4980478;28;19960;-81
2022/12/13 02:53:47;;;;;;;;;;;;;;;9.64;50.27;98149.75;4996640;28;19971;-82
2022/12/13 02:56:12;;;;;;;;;;;;;;;9.62;50.32;98141.25;5014097;28;20000;-81
2022/12/13 02:58:42;;;;;;;;;;;;;;;9.58;50.11;98148.50;5014879;28;20319;-82
2022/12/13 03:01:26;;;;;;;;;;;;;;;9.55;50.21;98142.69;4997661;28;19928;-84
2022/12/13 03:04:04;;;;;;;;;;;;;;;9.52;50.21;98149.00;5027962;28;19917;-79
2022/12/13 03:06:39;;;;;;;;;;;;;;;9.48;50.07;98155.41;5016169;28;19975;-79
2022/12/13 03:09:24;;;;;;;;;;;;;;;9.44;50.17;98156.59;5033396;28;19950;-80
2022/12/13 03:14:33;;;;;;;;;;;;;;;9.34;50.28;98158.28;5033864;28;19928;-79
2022/12/13 03:16:59;;;;;;;;;;;;;;;9.31;50.30;98161.13;5000042;28;20004;-80
2022/12/13 03:19:24;;;;;;;;;;;;;;;9.26;50.43;98158.91;5015678;28;19929;-81
2022/12/13 03:21:49;;;;;;;;;;;;;;;9.23;50.51;98162.59;5015621;28;19918;-80
2022/12/13 03:24:15;;;;;;;;;;;;;;;9.20;50.39;98165.44;5015105;28;19917;-79
2022/12/13 03:26:40;;;;;;;;;;;;;;;9.15;50.21;98162.34;5033096;28;19920;-81
2022/12/13 03:29:06;;;;;;;;;;;;;;;9.11;50.53;98166.16;5032689;28;19917;-83
2022/12/13 03:31:31;;;;;;;;;;;;;;;9.08;50.29;98171.63;5015214;28;20299;-81
2022/12/13 03:33:56;;;;;;;;;;;;;;;9.05;50.35;98177.06;5015148;28;20292;-81
2022/12/13 03:36:22;;;;;;;;;;;;;;;9.02;50.18;98179.91;5032372;28;19933;-81
2022/12/13 03:38:47;;;;;;;;;;;;;;;8.98;50.24;98192.34;5015478;28;20007;-82
2022/12/13 03:41:14;;;;;;;;;;;;;;;8.95;50.45;98191.75;5015355;28;19924;-81
2022/12/13 03:43:39;;;;;;;;;;;;;;;8.92;50.26;98191.97;5015165;28;19917;-81
2022/12/13 03:46:05;;;;;;;;;;;;;;;8.86;50.52;98188.91;4998820;28;19917;-81
2022/12/13 03:48:30;;;;;;;;;;;;;;;8.83;50.91;98181.34;5014818;28;19971;-82
2022/12/13 03:50:55;;;;;;;;;;;;;;;8.80;50.57;98194.59;5032941;28;20403;-82
2022/12/13 03:53:21;;;;;;;;;;;;;;;8.77;50.54;98194.84;5015407;28;19917;-82
2022/12/13 03:55:46;;;;;;;;;;;;;;;8.73;50.57;98195.19;5032562;28;19940;-82
2022/12/13 03:58:12;;;;;;;;;;;;;;;8.67;50.53;98192.13;5014893;28;19947;-81
2022/12/13 04:00:38;;;;;;;;;;;;;;;8.63;50.66;98195.06;5014652;28;19987;-81
2022/12/13 04:03:03;;;;;;;;;;;;;;;8.59;50.89;98191.88;5032239;28;20396;-81
2022/12/13 04:05:29;;;;;;;;;;;;;;;8.56;50.84;98186.91;5032437;28;19918;-81
2022/12/13 04:07:55;;;;;;;;;;;;;;;8.54;50.99;98187.97;5015100;28;19965;-81
2022/12/13 04:10:20;;;;;;;;;;;;;;;8.49;50.84;98181.38;5016123;28;19917;-82
2022/12/13 04:15:29;;;;;;;;;;;;;;;8.44;51.16;98186.06;5001102;28;19976;-81
2022/12/13 04:17:55;;;;;;;;;;;;;;;8.40;50.69;98183.81;5012636;28;19921;-81
2022/12/13 04:20:20;;;;;;;;;;;;;;;8.37;50.58;98182.25;5012687;28;19918;-80
2022/12/13 04:22:46;;;;;;;;;;;;;;;8.34;51.03;98175.50;5012727;28;19924;-81
2022/12/13 04:25:12;;;;;;;;;;;;;;;8.31;50.98;98180.94;5031539;28;19925;-81
2022/12/13 04:27:37;;;;;;;;;;;;;;;8.30;51.07;98191.47;5014596;28;19970;-81
2022/12/13 04:30:03;;;;;;;;;;;;;;;8.29;51.30;98195.84;5014319;28;19921;-82
2022/12/13 04:32:29;;;;;;;;;;;;;;;8.29;51.15;98200.22;5014677;28;19980;-80
2022/12/13 04:34:54;;;;;;;;;;;;;;;8.28;50.99;98206.34;5032906;28;19929;-82
2022/12/13 04:37:19;;;;;;;;;;;;;;;8.29;51.27;98200.22;5032186;28;19925;-82
2022/12/13 04:39:44;;;;;;;;;;;;;;;8.29;51.25;98202.81;4997967;28;19924;-81
2022/12/13 04:42:10;;;;;;;;;;;;;;;8.28;51.09;98203.75;5014400;28;19960;-82
2022/12/13 04:44:35;;;;;;;;;;;;;;;8.28;51.10;98209.78;5031972;28;19952;-83
2022/12/13 04:47:01;;;;;;;;;;;;;;;8.29;51.34;98215.81;5014608;28;19917;-82
2022/12/13 04:49:27;;;;;;;;;;;;;;;8.28;51.46;98219.34;5032263;28;19967;-80
2022/12/13 04:51:52;;;;;;;;;;;;;;;8.27;51.45;98222.91;4998613;28;19960;-79
2022/12/13 04:54:18;;;;;;;;;;;;;;;8.25;51.21;98233.41;5014827;28;19917;-82
2022/12/13 04:56:43;;;;;;;;;;;;;;;8.24;50.79;98238.72;5017470;28;19921;-82
2022/12/13 04:59:08;;;;;;;;;;;;;;;8.23;50.79;98247.50;5036126;28;19975;-83
2022/12/13 05:01:34;;;;;;;;;;;;;;;8.22;51.01;98257.03;5018315;28;20277;-91
2022/12/13 05:04:01;;;;;;;;;;;;;;;8.21;50.82;98257.19;5017887;28;19917;-81
2022/12/13 05:06:26;;;;;;;;;;;;;;;8.21;50.94;98258.00;5017941;28;19917;-75
2022/12/13 05:08:52;;;;;;;;;;;;;;;8.80;73.62;98264.88;5046017;28;19924;-79
2022/12/13 05:11:17;;;;;;;;;;;;;;;9.34;73.06;98276.31;5035504;28;20017;-78
2022/12/13 05:13:42;;;;;;;;;;;;;;;9.26;64.76;98280.50;5017761;28;19922;-77
2022/12/13 05:16:08;;;;;;;;;;;;;;;9.09;58.59;98273.97;5017989;28;19924;-79
2022/12/13 05:18:33;;;;;;;;;;;;;;;8.94;56.64;98268.19;5000379;28;19918;-80
2022/12/13 05:21:05;;;;;;;;;;;;;;;8.79;57.23;98278.84;5017941;28;19921;-79
2022/12/13 05:23:30;;;;;;;;;;;;;;;8.61;55.67;98275.84;5017907;28;19963;-80
2022/12/13 05:25:56;;;;;;;;;;;;;;;8.48;55.52;98282.94;5003872;28;19918;-81
2022/12/13 05:28:24;;;;;;;;;;;;;;;8.34;55.09;98283.91;5016411;28;19917;-78
2022/12/13 05:30:49;;;;;;;;;;;;;;;8.20;55.00;98284.13;5002860;28;19960;-78
2022/12/13 05:33:15;;;;;;;;;;;;;;;8.08;54.64;98291.88;5005709;28;19918;-78
2022/12/13 05:35:40;;;;;;;;;;;;;;;7.99;54.71;98287.34;4999045;28;20388;-79
2022/12/13 05:38:05;;;;;;;;;;;;;;;7.90;54.56;98293.22;4998722;28;19951;-80
2022/12/13 05:40:31;;;;;;;;;;;;;;;7.83;54.77;98295.44;4997792;28;20301;-80
2022/12/13 05:42:56;;;;;;;;;;;;;;;7.77;54.31;98301.06;4997996;28;19917;-80
2022/12/13 05:45:21;;;;;;;;;;;;;;;7.69;54.34;98314.59;4997556;28;19976;-80
2022/12/13 05:47:47;;;;;;;;;;;;;;;7.65;53.80;98314.91;4997783;28;19921;-79
2022/12/13 05:50:12;;;;;;;;;;;;;;;7.61;53.94;98315.13;4981655;28;20326;-79
2022/12/13 05:52:38;;;;;;;;;;;;;;;7.55;53.92;98314.75;5015279;28;19921;-81
2022/12/13 05:55:03;;;;;;;;;;;;;;;7.54;53.48;98321.72;4997764;28;19929;-80
2022/12/13 05:57:29;;;;;;;;;;;;;;;7.54;53.35;98326.06;4997404;28;19953;-79
2022/12/13 05:59:54;;;;;;;;;;;;;;;7.53;52.86;98329.63;4997705;28;20392;-80
2022/12/13 06:02:19;;;;;;;;;;;;;;;7.50;53.23;98325.47;4997474;28;19917;-80
2022/12/13 06:04:45;;;;;;;;;;;;;;;7.49;53.31;98335.94;4997175;28;20429;-80
2022/12/13 06:07:10;;;;;;;;;;;;;;;7.49;52.95;98339.38;4981471;28;19917;-80
2022/12/13 06:09:37;;;;;;;;;;;;;;;7.48;52.82;98340.31;4997391;28;20308;-81
2022/12/13 06:12:02;;;;;;;;;;;;;;;7.49;52.18;98341.16;4997033;28;20335;-81
2022/12/13 06:14:28;;;;;;;;;;;;;;;7.50;52.50;98343.63;4997230;28;19917;-81
2022/12/13 06:16:53;;;;;;;;;;;;;;;7.53;51.78;98343.41;4997150;28;19921;-80
2022/12/13 06:19:21;;;;;;;;;;;;;;;7.56;51.06;98348.41;4997472;28;19918;-80
2022/12/13 06:21:46;;;;;;;;;;;;;;;7.61;50.77;98350.69;4980934;28;19921;-79
2022/12/13 06:24:15;;;;;;;;;;;;;;;7.68;50.71;98358.88;4981556;28;19924;-81
2022/12/13 06:26:41;;;;;;;;;;;;;;;7.69;50.49;98361.34;4996814;28;20007;-80
2022/12/13 06:29:06;;;;;;;;;;;;;;;7.77;50.07;98366.03;4997004;28;19918;-80
2022/12/13 06:31:31;;;;;;;;;;;;;;;7.86;49.79;98361.91;4997198;28;20254;-81
2022/12/13 06:34:00;;;;;;;;;;;;;;;7.91;49.21;98357.25;4996622;28;20016;-81
2022/12/13 06:36:25;;;;;;;;;;;;;;;7.96;48.42;98373.34;4996302;28;19968;-82
2022/12/13 06:38:50;;;;;;;;;;;;;;;8.01;47.97;98368.63;4996997;28;20306;-80
2022/12/13 06:41:16;;;;;;;;;;;;;;;8.06;46.64;98369.13;4996541;28;19961;-82
2022/12/13 06:43:42;;;;;;;;;;;;;;;8.08;46.70;98372.47;4996953;28;20012;-83
2022/12/13 06:46:09;;;;;;;;;;;;;;;8.11;46.18;98366.19;5015732;28;19921;-80
2022/12/13 06:48:34;;;;;;;;;;;;;;;8.12;46.41;98388.66;4999848;28;19925;-80
2022/12/13 06:51:02;;;;;;;;;;;;;;;8.22;57.44;98407.03;5016911;28;19947;-75
2022/12/13 06:53:29;;;;;;;;;;;;;;;8.68;61.23;98409.75;5033807;28;19924;-87
2022/12/13 06:55:55;;;;;;;;;;;;;;;8.92;57.67;98410.63;5018349;28;20319;-85
2022/12/13 06:58:20;;;;;;;;;;;;;;;8.96;55.17;98409.47;5018797;28;19924;-86
2022/12/13 07:00:45;;;;;;;;;;;;;;;8.98;54.01;98407.56;5001834;28;20373;-87
2022/12/13 07:03:11;;;;;;;;;;;;;;;8.93;52.16;98407.09;5018910;28;20422;-82
2022/12/13 07:05:37;;;;;;;;;;;;;;;9.07;60.72;98425.13;5037815;28;20388;-89
2022/12/13 07:08:02;;;;;;;;;;;;;;;9.13;56.31;98424.66;5002009;28;19921;-84
2022/12/13 07:10:28;;;;;;;;;;;;;;;9.13;55.11;98426.44;5000458;28;20303;-85
2022/12/13 07:12:55;;;;;;;;;;;;;;;9.14;54.06;98423.72;5017225;28;19922;-88
2022/12/13 07:15:21;;;;;;;;;;;;;;;9.16;52.79;98423.63;4997262;28;20340;-86
2022/12/13 07:17:50;;;;;;;;;;;;;;;9.16;51.82;98416.63;5005611;28;19921;-78
2022/12/13 07:20:15;;;;;;;;;;;;;;;9.21;50.40;98424.09;5012060;28;19952;-79
2022/12/13 07:22:41;;;;;;;;;;;;;;;9.24;50.27;98426.47;4995677;28;20363;-75
2022/12/13 07:25:06;;;;;;;;;;;;;;;9.27;50.18;98431.44;5013022;28;19918;-76
2022/12/13 07:27:32;;;;;;;;;;;;;;;9.30;49.55;98433.81;4996247;28;19917;-81
2022/12/13 07:30:03;;;;;;;;;;;;;;;9.34;48.88;98434.41;4996839;28;19940;-84
2022/12/13 07:32:28;;;;;;;;;;;;;;;9.38;48.30;98446.25;4997411;28;19941;-81
2022/12/13 07:34:55;;;;;;;;;;;;;;;9.41;47.40;98446.03;5012682;28;19925;-84
2022/12/13 07:37:20;;;;;;;;;;;;;;;9.44;46.86;98448.41;5011769;28;19925;-83
2022/12/13 07:39:46;;;;;;;;;;;;;;;9.46;46.15;98451.72;4992244;28;19924;-82
2022/12/13 07:42:12;;;;;;;;;;;;;;;9.48;46.04;98449.81;4994021;28;20012;-82
2022/12/13 07:44:41;;;;;;;;;;;;;;;9.51;45.70;98460.00;4994031;28;20366;-84
2022/12/13 07:47:07;;;;;;;;;;;;;;;9.55;45.56;98471.00;4992224;28;19921;-87
2022/12/13 07:49:32;;;;;;;;;;;;;;;9.56;45.36;98470.88;4993203;28;19918;-81
2022/12/13 07:51:57;;;;;;;;;;;;;;;9.56;45.12;98470.88;4993343;28;19925;-81
2022/12/13 07:54:23;;;;;;;;;;;;;;;9.56;44.95;98470.88;4993902;28;19984;-78
2022/12/13 07:56:48;;;;;;;;;;;;;;;9.59;44.49;98465.44;4993462;28;20436;-76
2022/12/13 07:59:13;;;;;;;;;;;;;;;9.62;44.59;98460.97;4976173;28;19929;-78
2022/12/13 08:01:38;;;;;;;;;;;;;;;9.69;49.52;98462.97;4975859;28;20340;-87
2022/12/13 08:04:04;;;;;;;;;;;;;;;10.79;70.54;98481.31;4992538;28;20388;-75
2022/12/13 08:06:29;;;;;;;;;;;;;;;10.99;63.35;98477.06;4991710;28;19925;-76
2022/12/13 08:08:55;;;;;;;;;;;;;;;10.99;58.93;98477.06;4975477;28;19918;-76
2022/12/13 08:11:20;;;;;;;;;;;;;;;11.00;55.15;98481.31;4991230;28;19918;-74
2022/12/13 08:13:46;;;;;;;;;;;;;;;10.96;53.88;98490.38;4991867;28;20373;-77
2022/12/13 08:16:11;;;;;;;;;;;;;;;10.90;52.93;98488.25;4991405;28;19917;-78
2022/12/13 08:18:38;;;;;;;;;;;;;;;10.93;52.25;98490.63;4993443;28;19917;-79
2022/12/13 08:21:04;;;;;;;;;;;;;;;10.94;51.68;98494.06;4991927;28;19918;-74
2022/12/13 08:23:30;;;;;;;;;;;;;;;10.97;50.71;98491.19;4992192;28;19918;-78
2022/12/13 08:25:55;;;;;;;;;;;;;;;11.03;49.38;98488.91;4992016;28;19954;-78
2022/12/13 08:28:21;;;;;;;;;;;;;;;11.14;48.74;98492.44;4993371;28;19918;-79
2022/12/13 08:30:46;;;;;;;;;;;;;;;11.22;47.42;98495.25;4993285;28;19953;-79
2022/12/13 08:33:12;;;;;;;;;;;;;;;11.98;61.48;98497.59;4995815;28;19925;-79
2022/12/13 08:35:37;;;;;;;;;;;;;;;12.85;59.49;98496.13;4996007;28;19969;-85
2022/12/13 08:38:02;;;;;;;;;;;;;;;13.05;54.66;98506.63;4979897;28;19918;-78
2022/12/13 08:40:28;;;;;;;;;;;;;;;12.97;48.87;98507.31;4982288;28;19918;-76
2022/12/13 08:42:53;;;;;;;;;;;;;;;12.88;51.59;98510.75;4987940;28;20455;-82
2022/12/13 08:45:19;;;;;;;;;;;;;;;13.31;57.33;98519.97;5002414;28;20404;-76
2022/12/13 08:47:44;;;;;;;;;;;;;;;13.34;49.71;98517.09;4984040;28;19922;-74
2022/12/13 08:50:09;;;;;;;;;;;;;;;13.21;46.10;98504.25;4979268;28;19917;-76
2022/12/13 08:52:35;;;;;;;;;;;;;;;13.04;44.80;98505.78;4996687;28;20301;-73
2022/12/13 08:55:00;;;;;;;;;;;;;;;12.97;43.94;98497.66;4994836;28;20024;-76
2022/12/13 08:57:25;;;;;;;;;;;;;;;12.88;42.77;98490.63;4995130;28;19924;-77
2022/12/13 08:59:52;;;;;;;;;;;;;;;12.83;42.00;98493.66;4978642;28;20366;-79
2022/12/13 09:02:18;;;;;;;;;;;;;;;12.93;40.67;98500.69;4979127;28;20012;-77
2022/12/13 09:04:44;;;;;;;;;;;;;;;13.27;39.58;98500.28;4996393;28;19956;-80
2022/12/13 09:07:09;;;;;;;;;;;;;;;13.93;56.95;98494.16;4979100;28;19918;-75
2022/12/13 09:09:34;;;;;;;;;;;;;;;14.66;55.89;98498.66;4995297;28;19918;-75
2022/12/13 09:11:59;;;;;;;;;;;;;;;15.23;53.92;98500.97;4995388;28;19918;-75
2022/12/13 09:14:25;;;;;;;;;;;;;;;15.72;52.37;98505.75;5015527;28;20011;-73
2022/12/13 09:16:50;;;;;;;;;;;;;;;15.79;46.10;98500.69;4981914;28;20003;-76
2022/12/13 09:19:15;;;;;;;;;;;;;;;15.76;40.53;98491.28;4997928;28;19924;-77
2022/12/13 09:21:41;;;;;;;;;;;;;;;15.66;40.58;98487.94;5015568;28;20015;-76
2022/12/13 09:24:06;;;;;;;;;;;;;;;15.51;37.43;98482.41;4982067;28;19975;-79
2022/12/13 09:26:31;;;;;;;;;;;;;;;15.36;35.38;98472.44;4998793;28;20305;-74
2022/12/13 09:28:57;;;;;;;;;;;;;;;15.28;35.60;98472.41;5015625;28;20008;-80
2022/12/13 09:31:22;;;;;;;;;;;;;;;15.22;34.72;98461.69;4998496;28;20029;-78
2022/12/13 09:33:47;;;;;;;;;;;;;;;15.42;33.61;98467.53;4981499;28;19917;-78
2022/12/13 09:36:14;;;;;;;;;;;;;;;15.54;33.18;98477.69;4997899;28;19926;-79
2022/12/13 09:38:39;;;;;;;;;;;;;;;15.50;32.41;98481.59;4981447;28;20344;-80
2022/12/13 09:41:18;;;;;;;;;;;;;;;15.52;31.01;98468.28;4981335;28;19971;-77
2022/12/13 09:43:44;;;;;;;;;;;;;;;15.69;31.51;98459.50;5014404;28;19917;-78
2022/12/13 09:46:17;;;;;;;;;;;;;;;16.06;30.44;98454.91;4997807;28;19925;-80
2022/12/13 09:48:42;;;;;;;;;;;;;;;16.89;28.78;98453.28;4981761;28;19925;-79
2022/12/13 09:51:08;;;;;;;;;;;;;;;17.08;28.25;98447.72;4997726;28;19922;-80
2022/12/13 09:53:33;;;;;;;;;;;;;;;17.14;28.21;98443.56;4981582;28;19967;-81
2022/12/13 09:55:59;;;;;;;;;;;;;;;17.70;26.56;98430.44;5015317;28;19921;-79
2022/12/13 09:58:27;;;;;;;;;;;;;;;18.72;25.40;98430.44;4997848;28;20335;-81
2022/12/13 10:00:53;;;;;;;;;;;;;;;19.57;24.19;98420.56;4981126;28;19929;-80
2022/12/13 10:03:19;;;;;;;;;;;;;;;19.90;23.72;98414.09;4981304;28;19918;-79
2022/12/13 10:05:46;;;;;;;;;;;;;;;19.64;23.89;98410.06;4997566;28;20503;-79
2022/12/13 10:08:22;;;;;;;;;;;;;;;20.37;22.51;98405.66;4980906;28;19968;-80
2022/12/13 10:10:48;;;;;;;;;;;;;;;20.50;22.12;98412.13;4997036;28;19917;-80
2022/12/13 10:13:13;;;;;;;;;;;;;;;20.10;22.60;98404.56;4980909;28;19922;-81
2022/12/13 10:15:40;;;;;;;;;;;;;;;19.22;23.39;98407.03;4997387;28;19917;-81
2022/12/13 10:18:05;;;;;;;;;;;;;;;18.74;24.35;98404.63;4997395;28;19926;-79
2022/12/13 10:20:31;;;;;;;;;;;;;;;18.45;24.60;98410.59;4980793;28;19918;-76
2022/12/13 10:22:57;;;;;;;;;;;;;;;18.62;24.71;98409.50;4981400;28;19968;-80
2022/12/13 10:25:41;;;;;;;;;;;;;;;18.79;24.38;98402.25;4980911;28;20377;-79
2022/12/13 10:28:06;;;;;;;;;;;;;;;18.83;24.85;98404.53;4996635;28;20403;-80
2022/12/13 10:30:37;;;;;;;;;;;;;;;18.73;25.14;98402.97;5014225;28;19921;-79
2022/12/13 10:33:03;;;;;;;;;;;;;;;18.70;23.85;98407.78;4996943;28;19989;-79
2022/12/13 10:35:33;;;;;;;;;;;;;;;18.92;24.30;98406.16;4996834;28;19926;-80
2022/12/13 10:38:02;;;;;;;;;;;;;;;18.97;24.05;98409.91;4980429;28;19918;-79
2022/12/13 10:40:34;;;;;;;;;;;;;;;19.01;23.87;98401.59;4996633;28;19917;-79
2022/12/13 10:43:06;;;;;;;;;;;;;;;19.16;24.25;98403.31;4980327;28;19921;-80
2022/12/13 10:45:32;;;;;;;;;;;;;;;19.33;23.92;98403.94;4980062;28;19933;-81
2022/12/13 10:47:57;;;;;;;;;;;;;;;19.39;23.69;98402.41;4996735;28;19917;-79
2022/12/13 10:50:23;;;;;;;;;;;;;;;19.31;23.32;98400.66;4996679;28;20395;-79
2022/12/13 10:52:49;;;;;;;;;;;;;;;19.41;23.33;98395.09;4996061;28;19976;-79
2022/12/13 10:55:25;;;;;;;;;;;;;;;19.28;23.57;98398.38;4979963;28;20367;-79
2022/12/13 10:57:51;;;;;;;;;;;;;;;19.38;23.43;98392.81;4979992;28;19918;-79
2022/12/13 11:00:35;;;;;;;;;;;;;;;19.34;23.48;98389.72;4996045;28;19924;-78
2022/12/13 11:03:00;;;;;;;;;;;;;;;19.36;23.61;98386.88;4996094;28;19918;-79
2022/12/13 11:05:26;;;;;;;;;;;;;;;19.36;23.50;98391.38;4996371;28;19918;-80
2022/12/13 11:07:54;;;;;;;;;;;;;;;19.21;23.39;98384.22;5013595;28;19917;-79
2022/12/13 11:10:19;;;;;;;;;;;;;;;19.09;23.77;98390.97;4996129;28;19972;-80
2022/12/13 11:12:45;;;;;;;;;;;;;;;19.01;23.73;98383.94;4996582;28;19964;-79
2022/12/13 11:15:18;;;;;;;;;;;;;;;18.81;23.62;98380.94;4979852;28;19924;-80
2022/12/13 11:17:54;;;;;;;;;;;;;;;18.66;23.64;98386.19;4980096;28;20005;-83
2022/12/13 11:20:23;;;;;;;;;;;;;;;18.54;24.23;98388.41;4979879;28;19961;-79
2022/12/13 11:22:49;;;;;;;;;;;;;;;18.47;24.19;98391.94;4996333;28;19917;-79
2022/12/13 11:25:17;;;;;;;;;;;;;;;18.29;24.71;98390.41;4995637;28;19929;-80
2022/12/13 11:28:01;;;;;;;;;;;;;;;18.14;24.19;98384.22;5013709;28;20396;-79
2022/12/13 11:30:29;;;;;;;;;;;;;;;17.92;24.93;98375.25;5013179;28;20012;-78
2022/12/13 11:33:10;;;;;;;;;;;;;;;17.58;25.03;98371.91;4995344;28;19974;-80
2022/12/13 11:35:50;;;;;;;;;;;;;;;17.17;25.79;98377.31;5013379;28;20023;-79
2022/12/13 11:38:27;;;;;;;;;;;;;;;16.85;26.07;98383.44;4979533;28;20008;-81
2022/12/13 11:41:02;;;;;;;;;;;;;;;16.42;26.31;98370.41;4995403;28;19918;-80
2022/12/13 11:43:31;;;;;;;;;;;;;;;16.04;26.62;98368.19;4995790;28;19924;-78
2022/12/13 11:45:58;;;;;;;;;;;;;;;15.69;27.41;98371.84;4995175;28;19917;-79
2022/12/13 11:48:26;;;;;;;;;;;;;;;15.47;27.72;98373.25;4996102;28;19926;-79
2022/12/13 11:50:52;;;;;;;;;;;;;;;15.20;28.24;98375.06;5013074;28;19923;-80
2022/12/13 11:53:20;;;;;;;;;;;;;;;15.00;28.48;98382.31;4995406;28;20335;-81
2022/12/13 11:55:57;;;;;;;;;;;;;;;14.78;28.93;98378.38;4999994;28;19957;-80
2022/12/13 11:58:36;;;;;;;;;;;;;;;14.59;29.20;98374.91;4999524;28;19964;-81
2022/12/13 12:01:09;;;;;;;;;;;;;;;14.42;29.32;98379.22;4979563;28;20355;-79
2022/12/13 12:03:34;;;;;;;;;;;;;;;14.26;29.48;98382.53;4979397;28;19924;-81
2022/12/13 12:06:01;;;;;;;;;;;;;;;14.12;29.95;98388.25;5015128;28;20016;-81
2022/12/13 12:08:30;;;;;;;;;;;;;;;13.99;30.14;98390.44;4983158;28;19967;-79
2022/12/13 12:11:00;;;;;;;;;;;;;;;13.89;30.37;98388.69;4999404;28;19924;-79
2022/12/13 12:13:38;;;;;;;;;;;;;;;13.84;30.49;98388.31;4999691;28;20431;-78
2022/12/13 12:16:22;;;;;;;;;;;;;;;13.74;30.86;98377.03;4999879;28;19925;-80
2022/12/13 12:18:49;;;;;;;;;;;;;;;13.68;30.95;98370.56;5016630;28;19924;-82
2022/12/13 12:21:14;;;;;;;;;;;;;;;13.65;31.01;98376.13;4983312;28;20373;-80
2022/12/13 12:23:45;;;;;;;;;;;;;;;13.65;31.70;98375.28;4999100;28;19918;-80
2022/12/13 12:26:12;;;;;;;;;;;;;;;13.55;31.46;98384.03;4999127;28;19919;-80
2022/12/13 12:28:41;;;;;;;;;;;;;;;13.49;31.83;98389.84;4999144;28;20432;-81
2022/12/13 12:31:06;;;;;;;;;;;;;;;13.47;31.36;98391.78;5016758;28;20274;-81
2022/12/13 12:33:46;;;;;;;;;;;;;;;13.39;31.77;98395.13;5016748;28;20040;-79
2022/12/13 12:36:31;;;;;;;;;;;;;;;13.35;32.00;98387.69;4998977;28;19922;-79
2022/12/13 12:38:59;;;;;;;;;;;;;;;13.26;32.01;98389.34;4998508;28;20067;-81
2022/12/13 12:41:43;;;;;;;;;;;;;;;13.19;31.88;98388.25;4998720;28;19972;-80
2022/12/13 12:44:17;;;;;;;;;;;;;;;13.12;32.25;98395.84;5016087;28;19925;-79
2022/12/13 12:47:01;;;;;;;;;;;;;;;13.02;32.57;98390.63;4998556;28;19948;-79
2022/12/13 12:49:28;;;;;;;;;;;;;;;12.98;32.64;98388.44;4998442;28;19918;-79
2022/12/13 12:51:53;;;;;;;;;;;;;;;12.85;32.57;98381.69;5016186;28;19918;-78
2022/12/13 12:54:25;;;;;;;;;;;;;;;12.75;32.72;98383.50;5016052;28;19924;-80
2022/12/13 12:57:09;;;;;;;;;;;;;;;12.66;32.45;98384.34;4998398;28;20000;-80